sensor_id;sensor_type;location;lat;lon;timestamp;P1;durP1;ratioP1;P2;durP2;ratioP2
9264;SDS011;4669;49.594;10.958;2023-02-11T05:27:46;49.03;;;34.20;;
9264;SDS011;4669;49.594;10.958;2023-02-11T05:32:48;44.57;;;32.97;;
9264;SDS011;4669;49.594;10.958;2023-02-11T05:37:50;48.20;;;33.60;;
9264;SDS011;4669;49.594;10.958;2023-02-11T05:42:53;49.33;;;32.90;;
9264;SDS011;4669;49.594;10.958;2023-02-11T05:47:56;47.17;;;32.90;;
9264;SDS011;4669;49.594;10.958;2023-02-11T05:52:58;51.73;;;36.87;;
9264;SDS011;4669;49.594;10.958;2023-02-11T05:58:01;55.60;;;37.40;;
9264;SDS011;4669;49.594;10.958;2023-02-11T06:03:03;52.80;;;34.90;;
9264;SDS011;4669;49.594;10.958;2023-02-11T06:08:05;50.93;;;36.93;;
9264;SDS011;4669;49.594;10.958;2023-02-11T06:13:09;54.80;;;36.93;;
9264;SDS011;4669;49.594;10.958;2023-02-11T06:18:11;71.60;;;44.53;;
9264;SDS011;4669;49.594;10.958;2023-02-11T06:23:13;107.10;;;58.50;;
9264;SDS011;4669;49.594;10.958;2023-02-11T06:28:16;80.87;;;50.03;;
9264;SDS011;4669;49.594;10.958;2023-02-11T06:33:18;72.37;;;48.60;;
9264;SDS011;4669;49.594;10.958;2023-02-11T06:38:20;56.43;;;38.27;;
9264;SDS011;4669;49.594;10.958;2023-02-11T06:43:23;46.20;;;32.00;;
9264;SDS011;4669;49.594;10.958;2023-02-11T06:48:25;48.63;;;34.93;;
9264;SDS011;4669;49.594;10.958;2023-02-11T06:53:27;46.23;;;33.43;;
9264;SDS011;4669;49.594;10.958;2023-02-11T06:58:31;44.83;;;32.17;;
9264;SDS011;4669;49.594;10.958;2023-02-11T07:03:33;42.97;;;30.97;;
9264;SDS011;4669;49.594;10.958;2023-02-11T07:08:36;44.60;;;32.60;;
9264;SDS011;4669;49.594;10.958;2023-02-11T07:13:39;67.10;;;43.60;;
9264;SDS011;4669;49.594;10.958;2023-02-11T07:18:42;56.50;;;37.90;;
9264;SDS011;4669;49.594;10.958;2023-02-11T07:23:44;57.77;;;38.70;;
9264;SDS011;4669;49.594;10.958;2023-02-11T07:28:48;53.60;;;37.03;;
9264;SDS011;4669;49.594;10.958;2023-02-11T07:33:52;54.53;;;37.73;;
9264;SDS011;4669;49.594;10.958;2023-02-11T07:38:54;58.77;;;39.17;;
9264;SDS011;4669;49.594;10.958;2023-02-11T07:43:58;49.07;;;34.60;;
9264;SDS011;4669;49.594;10.958;2023-02-11T07:49:02;50.50;;;32.50;;
9264;SDS011;4669;49.594;10.958;2023-02-11T07:54:04;54.83;;;36.88;;
9264;SDS011;4669;49.594;10.958;2023-02-11T07:59:07;54.33;;;35.90;;
9264;SDS011;4669;49.594;10.958;2023-02-11T08:04:10;48.03;;;32.90;;
9264;SDS011;4669;49.594;10.958;2023-02-11T08:09:13;47.27;;;33.07;;
9264;SDS011;4669;49.594;10.958;2023-02-11T08:14:18;42.80;;;30.70;;
9264;SDS011;4669;49.594;10.958;2023-02-11T08:19:20;45.20;;;32.83;;
9264;SDS011;4669;49.594;10.958;2023-02-11T08:24:22;46.10;;;32.67;;
9264;SDS011;4669;49.594;10.958;2023-02-11T08:29:25;48.17;;;34.03;;
9264;SDS011;4669;49.594;10.958;2023-02-11T08:34:27;57.08;;;36.47;;
9264;SDS011;4669;49.594;10.958;2023-02-11T08:39:29;51.92;;;37.22;;
9264;SDS011;4669;49.594;10.958;2023-02-11T08:44:33;56.92;;;37.70;;
9264;SDS011;4669;49.594;10.958;2023-02-11T08:49:34;51.72;;;34.67;;
9264;SDS011;4669;49.594;10.958;2023-02-11T08:54:36;45.72;;;31.38;;
9264;SDS011;4669;49.594;10.958;2023-02-11T08:59:40;47.20;;;32.50;;
9264;SDS011;4669;49.594;10.958;2023-02-11T09:04:42;54.13;;;34.90;;
9264;SDS011;4669;49.594;10.958;2023-02-11T09:09:44;48.30;;;32.67;;
9264;SDS011;4669;49.594;10.958;2023-02-11T09:14:47;47.45;;;30.60;;
9264;SDS011;4669;49.594;10.958;2023-02-11T09:19:49;41.83;;;30.67;;
9264;SDS011;4669;49.594;10.958;2023-02-11T09:24:51;45.53;;;31.42;;
9264;SDS011;4669;49.594;10.958;2023-02-11T09:29:54;43.22;;;30.95;;
9264;SDS011;4669;49.594;10.958;2023-02-11T09:34:56;37.67;;;25.98;;
9264;SDS011;4669;49.594;10.958;2023-02-11T09:39:59;33.35;;;23.50;;
9264;SDS011;4669;49.594;10.958;2023-02-11T09:45:03;30.80;;;20.40;;
9264;SDS011;4669;49.594;10.958;2023-02-11T09:50:11;29.33;;;20.63;;
9264;SDS011;4669;49.594;10.958;2023-02-11T09:55:17;26.45;;;19.58;;
9264;SDS011;4669;49.594;10.958;2023-02-11T10:00:24;28.42;;;21.10;;
9264;SDS011;4669;49.594;10.958;2023-02-11T10:05:34;28.45;;;20.10;;
9264;SDS011;4669;49.594;10.958;2023-02-11T10:10:51;28.10;;;20.40;;
9264;SDS011;4669;49.594;10.958;2023-02-11T10:16:02;29.80;;;21.23;;
9264;SDS011;4669;49.594;10.958;2023-02-11T10:21:15;25.92;;;19.75;;
9264;SDS011;4669;49.594;10.958;2023-02-11T10:26:25;30.17;;;21.10;;
9264;SDS011;4669;49.594;10.958;2023-02-11T10:31:35;29.52;;;20.98;;
9264;SDS011;4669;49.594;10.958;2023-02-11T10:36:42;29.92;;;21.08;;
9264;SDS011;4669;49.594;10.958;2023-02-11T10:41:45;34.88;;;21.50;;
9264;SDS011;4669;49.594;10.958;2023-02-11T10:46:49;29.90;;;21.52;;
9264;SDS011;4669;49.594;10.958;2023-02-11T10:51:56;30.85;;;22.05;;
9264;SDS011;4669;49.594;10.958;2023-02-11T10:57:16;31.52;;;21.63;;
9264;SDS011;4669;49.594;10.958;2023-02-11T11:02:22;35.85;;;22.45;;
9264;SDS011;4669;49.594;10.958;2023-02-11T11:07:31;28.95;;;21.48;;
9264;SDS011;4669;49.594;10.958;2023-02-11T11:12:35;31.00;;;21.25;;
9264;SDS011;4669;49.594;10.958;2023-02-11T11:17:48;32.08;;;21.33;;
9264;SDS011;4669;49.594;10.958;2023-02-11T11:22:51;27.67;;;21.75;;
9264;SDS011;4669;49.594;10.958;2023-02-11T11:28:15;34.58;;;22.38;;
9264;SDS011;4669;49.594;10.958;2023-02-11T11:33:25;30.42;;;22.48;;
9264;SDS011;4669;49.594;10.958;2023-02-11T11:38:29;29.38;;;20.60;;
9264;SDS011;4669;49.594;10.958;2023-02-11T11:43:32;26.15;;;20.23;;
9264;SDS011;4669;49.594;10.958;2023-02-11T11:48:38;29.42;;;21.38;;
9264;SDS011;4669;49.594;10.958;2023-02-11T11:53:44;29.90;;;20.52;;
9264;SDS011;4669;49.594;10.958;2023-02-11T11:58:48;31.02;;;21.20;;
9264;SDS011;4669;49.594;10.958;2023-02-11T12:09:51;27.52;;;21.00;;
9264;SDS011;4669;49.594;10.958;2023-02-11T12:15:07;30.25;;;21.63;;
9264;SDS011;4669;49.594;10.958;2023-02-11T16:02:17;30.52;;;22.10;;
9264;SDS011;4669;49.594;10.958;2023-02-11T16:07:36;31.80;;;22.90;;
9264;SDS011;4669;49.594;10.958;2023-02-11T16:12:49;29.83;;;22.30;;
9264;SDS011;4669;49.594;10.958;2023-02-11T16:17:54;35.35;;;22.48;;
9264;SDS011;4669;49.594;10.958;2023-02-11T16:22:56;30.77;;;23.08;;
9264;SDS011;4669;49.594;10.958;2023-02-11T16:27:58;29.63;;;22.75;;
9264;SDS011;4669;49.594;10.958;2023-02-11T16:33:02;33.17;;;24.35;;
9264;SDS011;4669;49.594;10.958;2023-02-11T16:38:04;32.47;;;24.60;;
9264;SDS011;4669;49.594;10.958;2023-02-11T16:43:06;31.67;;;23.88;;
9264;SDS011;4669;49.594;10.958;2023-02-11T16:48:11;36.13;;;25.83;;
9264;SDS011;4669;49.594;10.958;2023-02-11T16:53:17;39.63;;;30.40;;
9264;SDS011;4669;49.594;10.958;2023-02-11T16:58:22;36.92;;;27.65;;
9264;SDS011;4669;49.594;10.958;2023-02-11T17:03:26;34.13;;;25.40;;
9264;SDS011;4669;49.594;10.958;2023-02-11T17:08:28;34.78;;;24.17;;
9264;SDS011;4669;49.594;10.958;2023-02-11T17:13:30;32.92;;;23.88;;
9264;SDS011;4669;49.594;10.958;2023-02-11T17:18:33;31.92;;;23.85;;
9264;SDS011;4669;49.594;10.958;2023-02-11T17:23:36;33.38;;;24.38;;
9264;SDS011;4669;49.594;10.958;2023-02-11T17:28:38;30.65;;;23.35;;
9264;SDS011;4669;49.594;10.958;2023-02-11T17:33:41;32.83;;;23.40;;
9264;SDS011;4669;49.594;10.958;2023-02-11T17:38:43;33.35;;;22.77;;
9264;SDS011;4669;49.594;10.958;2023-02-11T17:43:46;30.05;;;23.48;;
9264;SDS011;4669;49.594;10.958;2023-02-11T17:48:49;31.77;;;23.98;;
9264;SDS011;4669;49.594;10.958;2023-02-11T17:53:52;30.50;;;23.90;;
9264;SDS011;4669;49.594;10.958;2023-02-11T17:58:54;32.85;;;25.08;;
9264;SDS011;4669;49.594;10.958;2023-02-11T18:03:58;37.15;;;23.65;;
9264;SDS011;4669;49.594;10.958;2023-02-11T18:09:00;29.73;;;24.80;;
9264;SDS011;4669;49.594;10.958;2023-02-11T18:14:04;36.20;;;24.02;;
9264;SDS011;4669;49.594;10.958;2023-02-11T18:19:08;33.55;;;24.23;;
9264;SDS011;4669;49.594;10.958;2023-02-11T18:24:11;30.95;;;24.15;;
9264;SDS011;4669;49.594;10.958;2023-02-11T18:29:13;32.15;;;24.00;;
9264;SDS011;4669;49.594;10.958;2023-02-11T18:34:16;34.40;;;22.95;;
9264;SDS011;4669;49.594;10.958;2023-02-11T18:39:18;35.33;;;26.88;;
9264;SDS011;4669;49.594;10.958;2023-02-11T18:44:23;29.63;;;22.48;;
9264;SDS011;4669;49.594;10.958;2023-02-11T18:49:27;30.95;;;22.40;;
9264;SDS011;4669;49.594;10.958;2023-02-11T18:54:29;28.75;;;23.13;;
9264;SDS011;4669;49.594;10.958;2023-02-11T18:59:31;33.20;;;23.55;;
9264;SDS011;4669;49.594;10.958;2023-02-11T19:04:35;30.05;;;22.58;;
9264;SDS011;4669;49.594;10.958;2023-02-11T19:09:37;29.25;;;22.85;;
9264;SDS011;4669;49.594;10.958;2023-02-11T19:14:39;29.48;;;23.42;;
9264;SDS011;4669;49.594;10.958;2023-02-11T19:19:42;32.45;;;24.45;;
9264;SDS011;4669;49.594;10.958;2023-02-11T19:24:44;34.95;;;26.23;;
9264;SDS011;4669;49.594;10.958;2023-02-11T19:29:46;32.17;;;24.92;;
9264;SDS011;4669;49.594;10.958;2023-02-11T19:34:50;29.73;;;23.00;;
9264;SDS011;4669;49.594;10.958;2023-02-11T19:39:52;33.25;;;26.83;;
9264;SDS011;4669;49.594;10.958;2023-02-11T19:44:54;34.30;;;27.00;;
9264;SDS011;4669;49.594;10.958;2023-02-11T19:49:57;37.17;;;27.13;;
9264;SDS011;4669;49.594;10.958;2023-02-11T19:54:59;35.58;;;26.40;;
9264;SDS011;4669;49.594;10.958;2023-02-11T20:00:04;31.70;;;24.40;;
9264;SDS011;4669;49.594;10.958;2023-02-11T20:05:13;32.20;;;24.23;;
9264;SDS011;4669;49.594;10.958;2023-02-11T20:10:15;34.40;;;25.13;;
9264;SDS011;4669;49.594;10.958;2023-02-11T20:15:17;32.33;;;25.38;;
9264;SDS011;4669;49.594;10.958;2023-02-11T20:20:21;38.55;;;28.98;;
9264;SDS011;4669;49.594;10.958;2023-02-11T20:25:23;34.97;;;25.77;;
9264;SDS011;4669;49.594;10.958;2023-02-11T20:30:25;34.80;;;26.63;;
9264;SDS011;4669;49.594;10.958;2023-02-11T20:35:28;34.55;;;26.40;;
9264;SDS011;4669;49.594;10.958;2023-02-11T20:40:31;34.83;;;27.25;;
9264;SDS011;4669;49.594;10.958;2023-02-11T20:45:33;37.20;;;28.88;;
9264;SDS011;4669;49.594;10.958;2023-02-11T20:50:37;40.33;;;28.55;;
9264;SDS011;4669;49.594;10.958;2023-02-11T20:55:39;36.80;;;28.85;;
9264;SDS011;4669;49.594;10.958;2023-02-11T21:00:41;39.88;;;29.73;;
9264;SDS011;4669;49.594;10.958;2023-02-11T21:05:45;46.45;;;30.85;;
9264;SDS011;4669;49.594;10.958;2023-02-11T21:10:47;35.20;;;27.67;;
9264;SDS011;4669;49.594;10.958;2023-02-11T21:15:51;36.15;;;27.48;;
9264;SDS011;4669;49.594;10.958;2023-02-11T21:20:56;40.28;;;28.67;;
9264;SDS011;4669;49.594;10.958;2023-02-11T21:25:58;35.38;;;28.08;;
9264;SDS011;4669;49.594;10.958;2023-02-11T21:31:00;37.38;;;27.92;;
9264;SDS011;4669;49.594;10.958;2023-02-11T21:36:05;44.83;;;30.80;;
9264;SDS011;4669;49.594;10.958;2023-02-11T21:41:08;37.28;;;28.02;;
9264;SDS011;4669;49.594;10.958;2023-02-11T21:46:11;39.78;;;29.23;;
9264;SDS011;4669;49.594;10.958;2023-02-11T21:51:16;41.88;;;28.25;;
9264;SDS011;4669;49.594;10.958;2023-02-11T21:56:19;39.35;;;27.60;;
9264;SDS011;4669;49.594;10.958;2023-02-11T22:01:22;37.25;;;28.48;;
9264;SDS011;4669;49.594;10.958;2023-02-11T22:06:26;41.05;;;27.67;;
9264;SDS011;4669;49.594;10.958;2023-02-11T22:11:30;39.22;;;28.65;;
9264;SDS011;4669;49.594;10.958;2023-02-11T22:16:32;38.25;;;28.50;;
9264;SDS011;4669;49.594;10.958;2023-02-11T22:21:35;37.15;;;28.55;;
9264;SDS011;4669;49.594;10.958;2023-02-11T22:26:37;39.78;;;30.13;;
9264;SDS011;4669;49.594;10.958;2023-02-11T22:31:40;40.78;;;29.35;;
9264;SDS011;4669;49.594;10.958;2023-02-11T22:36:43;43.20;;;31.42;;
9264;SDS011;4669;49.594;10.958;2023-02-11T22:41:46;42.22;;;30.70;;
9264;SDS011;4669;49.594;10.958;2023-02-11T22:46:48;44.80;;;31.40;;
9264;SDS011;4669;49.594;10.958;2023-02-11T22:51:51;42.85;;;30.02;;
9264;SDS011;4669;49.594;10.958;2023-02-11T22:56:53;44.08;;;30.92;;
9264;SDS011;4669;49.594;10.958;2023-02-11T23:12:31;45.95;;;32.00;;
9264;SDS011;4669;49.594;10.958;2023-02-11T23:17:33;47.40;;;32.90;;
9264;SDS011;4669;49.594;10.958;2023-02-11T23:22:35;44.47;;;32.22;;
9264;SDS011;4669;49.594;10.958;2023-02-11T23:27:38;53.60;;;34.30;;
9264;SDS011;4669;49.594;10.958;2023-02-11T23:32:40;46.63;;;34.38;;
9264;SDS011;4669;49.594;10.958;2023-02-11T23:37:42;46.03;;;32.75;;
9264;SDS011;4669;49.594;10.958;2023-02-11T23:42:46;46.67;;;32.53;;
9264;SDS011;4669;49.594;10.958;2023-02-11T23:47:48;48.88;;;33.08;;
9264;SDS011;4669;49.594;10.958;2023-02-11T23:52:50;45.08;;;32.03;;
9264;SDS011;4669;49.594;10.958;2023-02-11T23:57:53;46.35;;;32.47;;
